Time;durP1;ratioP1;P1;durP2;ratioP2;P2;SDS_P1;SDS_P2;PMS_P1;PMS_P2;Temp;Humidity;BMP_temperature;BMP_pressure;BME280_temperature;BME280_humidity;BME280_pressure;Samples;Min_cycle;Max_cycle;Signal;HPM_P1;HPM_P2
2022/04/03 00:01:27;;;;;;;4.88;4.00;;;;;;;;;;5034868;28;20735;-47
2022/04/03 00:03:53;;;;;;;5.15;3.75;;;;;;;;;;5032495;28;20198;-47
2022/04/03 00:06:19;;;;;;;4.23;3.83;;;;;;;;;;5015018;28;20204;-48
2022/04/03 00:08:45;;;;;;;5.20;3.60;;;;;;;;;;5015100;28;20470;-48
2022/04/03 00:11:11;;;;;;;4.95;3.90;;;;;;;;;;5014775;28;20403;-49
2022/04/03 00:13:37;;;;;;;6.10;4.10;;;;;;;;;;5014679;28;20200;-47
2022/04/03 00:16:07;;;;;;;5.00;4.28;;;;;;;;;;5014927;28;20415;-46
2022/04/03 00:18:34;;;;;;;5.28;4.82;;;;;;;;;;5023824;28;20179;-47
2022/04/03 00:21:00;;;;;;;5.00;4.60;;;;;;;;;;5034145;28;20175;-47
2022/04/03 00:23:27;;;;;;;4.97;4.47;;;;;;;;;;5034244;28;20258;-48
2022/04/03 00:25:53;;;;;;;4.47;4.07;;;;;;;;;;5034086;28;20572;-47
2022/04/03 00:28:19;;;;;;;4.80;4.30;;;;;;;;;;5033496;28;20635;-50
2022/04/03 00:30:45;;;;;;;4.18;3.85;;;;;;;;;;5033404;28;20251;-47
2022/04/03 00:33:12;;;;;;;6.63;4.40;;;;;;;;;;5033676;28;20667;-47
2022/04/03 00:35:38;;;;;;;5.30;4.25;;;;;;;;;;5033601;28;20656;-47
2022/04/03 00:38:04;;;;;;;4.20;3.80;;;;;;;;;;5033765;28;20180;-46
2022/04/03 00:40:30;;;;;;;5.43;4.93;;;;;;;;;;5033809;28;20251;-47
2022/04/03 00:42:56;;;;;;;4.85;4.45;;;;;;;;;;5033108;28;20199;-47
2022/04/03 00:45:23;;;;;;;5.38;4.15;;;;;;;;;;5032690;28;20200;-47
2022/04/03 00:47:53;;;;;;;4.80;4.40;;;;;;;;;;5033697;28;20180;-46
2022/04/03 00:50:19;;;;;;;4.20;3.78;;;;;;;;;;5013980;28;20191;-47
2022/04/03 00:52:45;;;;;;;5.18;3.83;;;;;;;;;;5020772;28;20263;-46
2022/04/03 00:55:11;;;;;;;8.48;4.30;;;;;;;;;;5033875;28;20254;-47
2022/04/03 00:57:37;;;;;;;5.10;3.78;;;;;;;;;;5032863;28;20179;-47
2022/04/03 01:00:04;;;;;;;4.90;4.40;;;;;;;;;;5032870;28;20540;-47
2022/04/03 01:02:31;;;;;;;4.07;3.78;;;;;;;;;;5031901;28;20438;-47
2022/04/03 01:04:57;;;;;;;4.93;4.18;;;;;;;;;;5031465;28;20171;-47
2022/04/03 01:07:23;;;;;;;7.15;3.72;;;;;;;;;;5032182;28;20180;-49
2022/04/03 01:09:49;;;;;;;5.38;4.88;;;;;;;;;;5033220;28;20173;-49
2022/04/03 01:12:16;;;;;;;4.47;4.07;;;;;;;;;;5032397;28;20184;-49
2022/04/03 01:14:43;;;;;;;5.47;3.88;;;;;;;;;;5031942;28;20396;-46
2022/04/03 01:17:12;;;;;;;5.50;4.43;;;;;;;;;;5032233;28;20171;-47
2022/04/03 01:19:38;;;;;;;6.03;4.20;;;;;;;;;;5030853;28;20179;-47
2022/04/03 01:22:04;;;;;;;5.45;4.20;;;;;;;;;;5032045;28;20179;-48
2022/04/03 01:24:30;;;;;;;5.80;4.40;;;;;;;;;;5031769;28;20235;-48
2022/04/03 01:26:56;;;;;;;5.07;4.20;;;;;;;;;;5032232;28;20204;-46
2022/04/03 01:29:23;;;;;;;4.90;4.23;;;;;;;;;;5032342;28;20644;-47
2022/04/03 01:31:50;;;;;;;5.63;3.92;;;;;;;;;;5031657;28;20410;-47
2022/04/03 01:34:17;;;;;;;5.10;4.30;;;;;;;;;;5031648;28;20195;-47
2022/04/03 01:36:43;;;;;;;8.15;4.25;;;;;;;;;;5031717;28;20660;-48
2022/04/03 01:39:12;;;;;;;5.07;4.18;;;;;;;;;;5031713;28;20644;-47
2022/04/03 01:41:39;;;;;;;4.75;3.92;;;;;;;;;;5030301;28;20267;-47
2022/04/03 01:44:06;;;;;;;4.40;4.10;;;;;;;;;;5032943;28;20271;-47
2022/04/03 01:46:32;;;;;;;4.97;3.85;;;;;;;;;;5032580;28;20703;-47
2022/04/03 01:48:58;;;;;;;4.60;3.67;;;;;;;;;;5032360;28;20183;-49
2022/04/03 01:51:24;;;;;;;4.87;4.30;;;;;;;;;;5032563;28;20428;-46
2022/04/03 01:53:50;;;;;;;4.13;3.70;;;;;;;;;;5032248;28;20442;-46
2022/04/03 01:56:16;;;;;;;4.90;4.40;;;;;;;;;;5032540;28;20422;-47
2022/04/03 01:58:42;;;;;;;4.30;3.90;;;;;;;;;;5032545;28;20414;-46
2022/04/03 02:01:08;;;;;;;5.50;4.70;;;;;;;;;;5032174;28;20418;-47
2022/04/03 02:03:34;;;;;;;4.57;4.17;;;;;;;;;;5032559;28;20433;-47
2022/04/03 02:05:59;;;;;;;4.37;3.97;;;;;;;;;;5032166;28;20549;-46
2022/04/03 02:08:27;;;;;;;4.23;3.80;;;;;;;;;;5032541;28;20437;-47
2022/04/03 02:10:53;;;;;;;4.25;3.85;;;;;;;;;;5032227;28;20434;-48
2022/04/03 02:13:21;;;;;;;7.05;4.85;;;;;;;;;;5032163;28;20567;-49
2022/04/03 02:15:48;;;;;;;6.90;4.57;;;;;;;;;;5031908;28;20259;-47
2022/04/03 02:18:14;;;;;;;5.82;4.55;;;;;;;;;;5032124;28;20581;-47
2022/04/03 02:20:40;;;;;;;5.70;4.97;;;;;;;;;;5031823;28;20186;-48
2022/04/03 02:23:06;;;;;;;5.80;4.32;;;;;;;;;;5031924;28;20434;-46
2022/04/03 02:25:32;;;;;;;5.00;3.92;;;;;;;;;;5031953;28;20206;-47
2022/04/03 02:28:04;;;;;;;5.53;4.00;;;;;;;;;;5032088;28;20664;-47
2022/04/03 02:30:30;;;;;;;6.00;4.40;;;;;;;;;;5031661;28;20207;-46
2022/04/03 02:32:56;;;;;;;5.30;4.60;;;;;;;;;;5031697;28;20203;-47
2022/04/03 02:35:23;;;;;;;5.65;5.15;;;;;;;;;;5032286;28;20631;-47
2022/04/03 02:37:49;;;;;;;5.78;4.10;;;;;;;;;;5031822;28;20175;-47
2022/04/03 02:40:16;;;;;;;5.43;4.93;;;;;;;;;;5031597;28;20183;-47
2022/04/03 02:42:44;;;;;;;14.35;9.43;;;;;;;;;;5031643;28;20430;-47
2022/04/03 02:45:10;;;;;;;10.68;7.90;;;;;;;;;;5031673;28;20681;-48
2022/04/03 02:47:37;;;;;;;7.93;6.03;;;;;;;;;;5031790;28;20171;-46
2022/04/03 02:50:04;;;;;;;6.38;5.72;;;;;;;;;;5031371;28;20180;-47
2022/04/03 02:52:30;;;;;;;6.30;5.40;;;;;;;;;;5030990;28;20191;-47
2022/04/03 02:54:57;;;;;;;6.93;5.00;;;;;;;;;;5031337;28;20267;-47
2022/04/03 02:57:24;;;;;;;4.95;4.45;;;;;;;;;;5031712;28;20442;-48
2022/04/03 02:59:50;;;;;;;11.75;4.20;;;;;;;;;;5031630;28;20174;-47
2022/04/03 03:02:17;;;;;;;9.70;4.53;;;;;;;;;;5031345;28;20728;-46
2022/04/03 03:04:43;;;;;;;12.95;5.40;;;;;;;;;;5031608;28;20433;-46
2022/04/03 03:07:09;;;;;;;6.60;4.77;;;;;;;;;;5031543;28;20664;-46
2022/04/03 03:09:35;;;;;;;6.30;4.93;;;;;;;;;;5031284;28;20446;-49
2022/04/03 03:12:03;;;;;;;6.00;5.40;;;;;;;;;;5031327;28;20182;-49
2022/04/03 03:14:29;;;;;;;8.63;4.70;;;;;;;;;;5031089;28;20189;-47
2022/04/03 03:16:57;;;;;;;5.05;4.30;;;;;;;;;;5031068;28;20175;-47
2022/04/03 03:19:23;;;;;;;4.63;4.13;;;;;;;;;;5031022;28;20610;-47
2022/04/03 03:21:49;;;;;;;7.33;6.40;;;;;;;;;;5031220;28;20168;-47
2022/04/03 03:24:15;;;;;;;6.43;4.97;;;;;;;;;;5030996;28;20444;-47
2022/04/03 03:26:41;;;;;;;5.20;4.45;;;;;;;;;;5031068;28;20206;-46
2022/04/03 03:29:08;;;;;;;7.50;5.60;;;;;;;;;;5031317;28;20168;-47
2022/04/03 03:31:34;;;;;;;9.75;6.85;;;;;;;;;;5030878;28;20218;-47
2022/04/03 03:34:00;;;;;;;6.10;5.25;;;;;;;;;;5030664;28;20707;-47
2022/04/03 03:36:26;;;;;;;6.23;5.20;;;;;;;;;;5031301;28;20176;-46
2022/04/03 03:38:52;;;;;;;7.33;5.53;;;;;;;;;;5031238;28;20425;-47
2022/04/03 03:41:18;;;;;;;8.83;5.07;;;;;;;;;;5030989;28;20428;-47
2022/04/03 03:43:45;;;;;;;5.63;5.00;;;;;;;;;;5031183;28;20457;-47
2022/04/03 03:46:11;;;;;;;6.45;4.95;;;;;;;;;;5030656;28;20549;-47
2022/04/03 03:48:38;;;;;;;5.60;5.10;;;;;;;;;;5031276;28;20171;-46
2022/04/03 03:51:04;;;;;;;5.95;4.53;;;;;;;;;;5030353;28;20191;-47
2022/04/03 03:53:30;;;;;;;6.25;4.80;;;;;;;;;;5031006;28;20199;-47
2022/04/03 03:55:56;;;;;;;5.93;5.22;;;;;;;;;;5030620;28;20225;-49
2022/04/03 03:58:23;;;;;;;5.55;5.05;;;;;;;;;;5030876;28;20178;-47
2022/04/03 04:00:50;;;;;;;7.70;5.57;;;;;;;;;;5030794;28;20225;-47
2022/04/03 04:03:16;;;;;;;12.50;4.93;;;;;;;;;;5030950;28;20237;-47
2022/04/03 04:05:42;;;;;;;5.73;4.80;;;;;;;;;;5032739;28;20664;-47
2022/04/03 04:08:08;;;;;;;5.33;4.53;;;;;;;;;;5034590;28;20429;-47
2022/04/03 04:10:36;;;;;;;6.28;4.75;;;;;;;;;;5034459;28;20414;-48
2022/04/03 04:13:02;;;;;;;6.05;4.93;;;;;;;;;;5034201;28;20234;-48
2022/04/03 04:15:30;;;;;;;6.88;5.65;;;;;;;;;;5034373;28;20176;-50
2022/04/03 04:17:56;;;;;;;6.57;4.95;;;;;;;;;;5034477;28;20176;-50
2022/04/03 04:20:22;;;;;;;5.50;4.82;;;;;;;;;;5034101;28;20171;-49
2022/04/03 04:22:50;;;;;;;5.45;4.63;;;;;;;;;;5034425;28;20660;-47
2022/04/03 04:25:17;;;;;;;6.53;4.88;;;;;;;;;;5034062;28;20738;-49
2022/04/03 04:27:47;;;;;;;6.40;4.80;;;;;;;;;;5033414;28;20181;-48
2022/04/03 04:30:14;;;;;;;7.53;4.97;;;;;;;;;;5034426;28;20186;-49
2022/04/03 04:32:41;;;;;;;6.18;5.40;;;;;;;;;;5034245;28;20180;-49
2022/04/03 04:35:07;;;;;;;7.18;5.30;;;;;;;;;;5034243;28;20168;-49
2022/04/03 04:37:34;;;;;;;7.93;6.45;;;;;;;;;;5034559;28;20524;-47
2022/04/03 04:40:01;;;;;;;6.00;4.70;;;;;;;;;;5034427;28;20534;-48
2022/04/03 04:42:28;;;;;;;6.75;6.05;;;;;;;;;;5033934;28;20184;-49
2022/04/03 04:44:54;;;;;;;7.72;5.70;;;;;;;;;;5034067;28;20579;-48
2022/04/03 04:47:20;;;;;;;8.27;4.88;;;;;;;;;;5034015;28;20243;-49
2022/04/03 04:49:47;;;;;;;8.60;5.20;;;;;;;;;;5033781;28;20313;-49
2022/04/03 04:52:13;;;;;;;5.95;5.03;;;;;;;;;;5033827;28;20394;-48
2022/04/03 04:54:39;;;;;;;5.25;4.75;;;;;;;;;;5033952;28;20170;-49
2022/04/03 04:57:05;;;;;;;6.00;5.33;;;;;;;;;;5033853;28;20171;-49
2022/04/03 04:59:32;;;;;;;7.90;4.90;;;;;;;;;;5033537;28;20970;-49
2022/04/03 05:01:59;;;;;;;6.90;4.57;;;;;;;;;;5033929;28;20279;-49
2022/04/03 05:04:25;;;;;;;8.95;5.25;;;;;;;;;;5033686;28;20448;-50
2022/04/03 05:06:51;;;;;;;10.20;5.00;;;;;;;;;;5033660;28;20743;-49
2022/04/03 05:09:18;;;;;;;7.55;5.50;;;;;;;;;;5033442;28;20398;-49
2022/04/03 05:11:46;;;;;;;6.25;5.55;;;;;;;;;;5033462;28;20214;-49
2022/04/03 05:14:15;;;;;;;7.55;6.65;;;;;;;;;;5033541;28;20318;-49
2022/04/03 05:16:41;;;;;;;13.95;9.40;;;;;;;;;;5033360;28;20168;-48
2022/04/03 05:19:12;;;;;;;11.30;7.88;;;;;;;;;;5033484;28;20192;-50
2022/04/03 05:21:38;;;;;;;9.48;7.05;;;;;;;;;;5033260;28;20172;-48
2022/04/03 05:24:04;;;;;;;6.20;5.60;;;;;;;;;;5033160;28;20214;-48
2022/04/03 05:26:30;;;;;;;8.45;5.95;;;;;;;;;;5033201;28;20465;-49
2022/04/03 05:28:56;;;;;;;6.13;5.53;;;;;;;;;;5033215;28;20164;-50
2022/04/03 05:31:25;;;;;;;8.70;6.17;;;;;;;;;;5033071;28;20494;-49
2022/04/03 05:33:51;;;;;;;6.25;5.65;;;;;;;;;;5033026;28;20410;-49
2022/04/03 05:36:16;;;;;;;8.47;5.80;;;;;;;;;;5033113;28;20662;-50
2022/04/03 05:38:42;;;;;;;7.13;5.30;;;;;;;;;;5032985;28;20478;-49
2022/04/03 05:41:08;;;;;;;16.00;5.27;;;;;;;;;;5032830;28;20450;-49
2022/04/03 05:43:34;;;;;;;10.07;5.43;;;;;;;;;;5032833;28;20428;-48
2022/04/03 05:46:00;;;;;;;5.90;5.03;;;;;;;;;;5032964;28;20464;-48
2022/04/03 05:48:26;;;;;;;5.67;5.07;;;;;;;;;;5032916;28;20402;-48
2022/04/03 05:50:52;;;;;;;6.27;5.67;;;;;;;;;;5032523;28;20921;-48
2022/04/03 05:53:18;;;;;;;5.67;4.77;;;;;;;;;;5032553;28;20415;-48
2022/04/03 05:55:45;;;;;;;6.23;5.20;;;;;;;;;;5032787;28;20412;-49
2022/04/03 05:58:11;;;;;;;6.97;5.38;;;;;;;;;;5032674;28;20403;-49
2022/04/03 06:00:38;;;;;;;6.93;5.40;;;;;;;;;;5032479;28;20230;-49
2022/04/03 06:03:05;;;;;;;6.80;5.40;;;;;;;;;;5032920;28;20411;-49
2022/04/03 06:05:34;;;;;;;6.18;5.55;;;;;;;;;;5032494;28;20199;-49
2022/04/03 06:08:03;;;;;;;6.70;5.25;;;;;;;;;;5032459;28;20175;-48
2022/04/03 06:10:30;;;;;;;5.90;4.65;;;;;;;;;;5032266;28;20202;-49
2022/04/03 06:12:56;;;;;;;5.95;5.43;;;;;;;;;;5032345;28;20188;-49
2022/04/03 06:15:22;;;;;;;7.70;5.67;;;;;;;;;;5032430;28;20178;-49
2022/04/03 06:17:49;;;;;;;8.52;5.57;;;;;;;;;;5032417;28;20844;-49
2022/04/03 06:20:15;;;;;;;8.07;5.72;;;;;;;;;;5031923;28;20182;-49
2022/04/03 06:22:41;;;;;;;9.47;5.83;;;;;;;;;;5032173;28;20191;-49
2022/04/03 06:25:10;;;;;;;6.40;5.13;;;;;;;;;;5032111;28;20412;-48
2022/04/03 06:27:36;;;;;;;5.53;5.03;;;;;;;;;;5031631;28;20438;-49
2022/04/03 06:30:03;;;;;;;8.98;7.85;;;;;;;;;;5032007;28;20183;-48
2022/04/03 06:32:29;;;;;;;6.63;6.03;;;;;;;;;;5032006;28;20187;-48
2022/04/03 06:34:55;;;;;;;9.00;6.80;;;;;;;;;;5031879;28;20657;-48
2022/04/03 06:37:21;;;;;;;6.40;5.80;;;;;;;;;;5032164;28;20582;-48
2022/04/03 06:39:47;;;;;;;8.03;6.13;;;;;;;;;;5031941;28;20172;-50
2022/04/03 06:42:13;;;;;;;10.50;6.13;;;;;;;;;;5031975;28;20406;-49
2022/04/03 06:44:40;;;;;;;6.45;5.80;;;;;;;;;;5032117;28;20186;-50
2022/04/03 06:47:07;;;;;;;6.35;5.70;;;;;;;;;;5031861;28;20678;-49
2022/04/03 06:49:33;;;;;;;6.68;5.80;;;;;;;;;;5031490;28;20257;-50
2022/04/03 06:51:59;;;;;;;8.07;5.57;;;;;;;;;;5031908;28;20541;-49
2022/04/03 06:54:25;;;;;;;6.07;5.53;;;;;;;;;;5031774;28;20188;-49
2022/04/03 06:56:54;;;;;;;8.20;6.50;;;;;;;;;;5031845;28;20172;-51
2022/04/03 06:59:20;;;;;;;7.43;6.53;;;;;;;;;;5031708;28;20400;-50
2022/04/03 07:01:47;;;;;;;8.65;6.38;;;;;;;;;;5029995;28;20233;-48
2022/04/03 07:04:14;;;;;;;6.72;6.03;;;;;;;;;;5031375;28;20260;-49
2022/04/03 07:06:40;;;;;;;8.57;5.53;;;;;;;;;;5031276;28;20199;-52
2022/04/03 07:09:06;;;;;;;5.60;5.05;;;;;;;;;;5031198;28;20241;-52
2022/04/03 07:11:34;;;;;;;9.70;5.83;;;;;;;;;;5030869;28;20209;-52
2022/04/03 07:14:00;;;;;;;6.90;5.20;;;;;;;;;;5031615;28;20421;-52
2022/04/03 07:16:27;;;;;;;10.33;5.13;;;;;;;;;;5031582;28;20410;-51
2022/04/03 07:18:54;;;;;;;5.30;4.80;;;;;;;;;;5031695;28;21620;-52
2022/04/03 07:21:22;;;;;;;6.40;5.50;;;;;;;;;;5031359;28;20422;-51
2022/04/03 07:23:48;;;;;;;12.53;5.10;;;;;;;;;;5031675;28;20403;-52
2022/04/03 07:26:13;;;;;;;5.17;4.30;;;;;;;;;;5031572;28;20453;-52
2022/04/03 07:28:40;;;;;;;5.73;4.97;;;;;;;;;;5031422;28;20424;-53
2022/04/03 07:31:06;;;;;;;6.17;4.80;;;;;;;;;;5030848;28;20404;-52
2022/04/03 07:33:32;;;;;;;6.47;4.50;;;;;;;;;;5031350;28;20427;-52
2022/04/03 07:35:58;;;;;;;7.60;4.60;;;;;;;;;;5031616;28;20422;-53
2022/04/03 07:38:24;;;;;;;4.97;4.50;;;;;;;;;;5031547;28;20402;-53
2022/04/03 07:40:50;;;;;;;4.97;3.77;;;;;;;;;;5033406;28;20421;-52
2022/04/03 07:43:17;;;;;;;4.60;4.17;;;;;;;;;;5035284;28;20398;-53
2022/04/03 07:45:44;;;;;;;4.80;4.33;;;;;;;;;;5035547;28;20465;-52
2022/04/03 07:48:10;;;;;;;5.90;4.43;;;;;;;;;;5035320;28;20764;-52
2022/04/03 07:50:36;;;;;;;5.67;3.90;;;;;;;;;;5035059;28;20751;-50
2022/04/03 07:53:04;;;;;;;8.40;4.77;;;;;;;;;;5035032;28;20431;-51
2022/04/03 07:55:30;;;;;;;4.10;3.70;;;;;;;;;;5035170;28;20426;-50
2022/04/03 07:57:56;;;;;;;3.43;3.10;;;;;;;;;;5035068;28;20412;-51
2022/04/03 08:00:22;;;;;;;3.33;2.83;;;;;;;;;;5034661;28;20420;-51
2022/04/03 08:02:48;;;;;;;2.73;2.53;;;;;;;;;;5034725;28;20432;-53
2022/04/03 08:05:15;;;;;;;4.30;3.30;;;;;;;;;;5034897;28;20535;-53
2022/04/03 08:07:45;;;;;;;5.60;3.27;;;;;;;;;;5034761;28;20817;-53
2022/04/03 08:10:13;;;;;;;3.70;3.00;;;;;;;;;;5034640;28;20393;-53
2022/04/03 08:12:43;;;;;;;2.83;2.53;;;;;;;;;;5034511;28;20792;-52
2022/04/03 08:15:11;;;;;;;4.20;3.50;;;;;;;;;;5034824;28;20797;-53
2022/04/03 08:17:40;;;;;;;3.80;3.23;;;;;;;;;;5034792;28;20404;-53
2022/04/03 08:20:10;;;;;;;4.30;3.37;;;;;;;;;;5034412;28;20811;-53
2022/04/03 08:22:39;;;;;;;7.20;2.27;;;;;;;;;;5034405;28;20994;-52
2022/04/03 08:25:06;;;;;;;2.97;2.77;;;;;;;;;;5034488;28;20413;-53
2022/04/03 08:27:51;;;;;;;3.10;2.80;;;;;;;;;;5034520;28;20969;-53
2022/04/03 08:30:28;;;;;;;2.73;2.53;;;;;;;;;;5034269;28;20789;-52
2022/04/03 08:32:54;;;;;;;4.20;3.37;;;;;;;;;;5034379;28;20415;-52
2022/04/03 08:35:20;;;;;;;3.30;3.10;;;;;;;;;;5034371;28;20401;-53
2022/04/03 08:37:50;;;;;;;3.60;3.30;;;;;;;;;;5034246;28;20873;-53
2022/04/03 08:40:20;;;;;;;3.93;3.03;;;;;;;;;;5034084;28;20506;-53
2022/04/03 08:51:56;;;;;;;3.77;3.30;;;;;;;;;;5033308;28;20447;-53
2022/04/03 08:54:23;;;;;;;3.53;3.20;;;;;;;;;;5033986;28;20419;-50
2022/04/03 08:56:48;;;;;;;3.33;3.07;;;;;;;;;;5033836;28;20408;-52
2022/04/03 08:59:14;;;;;;;8.07;3.30;;;;;;;;;;5033747;28;20913;-52
2022/04/03 09:01:40;;;;;;;5.53;3.40;;;;;;;;;;5033725;28;20406;-50
2022/04/03 09:04:06;;;;;;;4.50;2.90;;;;;;;;;;5033782;28;20439;-50
2022/04/03 09:06:32;;;;;;;3.60;3.30;;;;;;;;;;5033749;28;20584;-51
2022/04/03 09:08:58;;;;;;;4.40;3.53;;;;;;;;;;5033664;28;20406;-51
2022/04/03 09:11:29;;;;;;;3.67;3.33;;;;;;;;;;5033323;28;20405;-51
2022/04/03 09:13:55;;;;;;;3.80;3.50;;;;;;;;;;5033575;28;20426;-52
2022/04/03 09:16:37;;;;;;;3.83;3.33;;;;;;;;;;5031746;28;20774;-52
2022/04/03 09:19:03;;;;;;;4.90;3.20;;;;;;;;;;5030432;28;20414;-51
2022/04/03 09:21:29;;;;;;;3.50;3.20;;;;;;;;;;5033585;28;20408;-50
2022/04/03 09:24:11;;;;;;;3.43;2.90;;;;;;;;;;5033479;28;20433;-52
2022/04/03 09:26:39;;;;;;;3.80;3.27;;;;;;;;;;5033251;28;20942;-51
2022/04/03 09:29:06;;;;;;;2.90;2.60;;;;;;;;;;5033276;28;20408;-50
2022/04/03 09:31:33;;;;;;;3.67;2.63;;;;;;;;;;5033038;28;20766;-49
2022/04/03 09:34:00;;;;;;;2.87;2.50;;;;;;;;;;5032999;28;20452;-50
2022/04/03 09:36:29;;;;;;;3.10;2.40;;;;;;;;;;5032994;28;20415;-50
2022/04/03 09:39:04;;;;;;;2.75;2.45;;;;;;;;;;5033007;28;20879;-51
2022/04/03 09:41:30;;;;;;;2.80;2.50;;;;;;;;;;5032880;28;20173;-51
2022/04/03 09:43:56;;;;;;;3.40;3.10;;;;;;;;;;5032808;28;20275;-49
2022/04/03 09:46:26;;;;;;;3.07;2.87;;;;;;;;;;5032970;28;20453;-51
2022/04/03 09:48:52;;;;;;;4.03;3.27;;;;;;;;;;5032696;28;20482;-50
2022/04/03 09:51:22;;;;;;;4.50;2.80;;;;;;;;;;5032892;28;20945;-51
2022/04/03 09:53:52;;;;;;;3.90;3.33;;;;;;;;;;5033065;28;20485;-49
2022/04/03 09:56:21;;;;;;;3.45;2.60;;;;;;;;;;5032735;28;20891;-49
2022/04/03 09:58:50;;;;;;;3.25;2.95;;;;;;;;;;5032635;28;20187;-50
2022/04/03 10:01:24;;;;;;;4.80;3.47;;;;;;;;;;5032325;28;20196;-51
2022/04/03 10:03:51;;;;;;;3.83;3.05;;;;;;;;;;5031631;28;20698;-51
2022/04/03 10:06:17;;;;;;;4.45;2.50;;;;;;;;;;5032540;28;20199;-50
2022/04/03 10:08:44;;;;;;;2.80;2.60;;;;;;;;;;5032463;28;20666;-50
2022/04/03 10:11:11;;;;;;;3.22;2.75;;;;;;;;;;5033316;28;20190;-50
2022/04/03 10:13:37;;;;;;;6.10;3.10;;;;;;;;;;5032223;28;20255;-49
2022/04/03 10:16:04;;;;;;;4.57;2.75;;;;;;;;;;5032341;28;20175;-49
2022/04/03 10:18:30;;;;;;;3.42;3.13;;;;;;;;;;5032394;28;20163;-49
2022/04/03 10:20:56;;;;;;;4.10;3.70;;;;;;;;;;5032076;28;20168;-49
2022/04/03 10:23:24;;;;;;;3.27;3.07;;;;;;;;;;5032339;28;20196;-49
2022/04/03 10:25:51;;;;;;;2.70;2.50;;;;;;;;;;5032058;28;21016;-49
2022/04/03 10:28:19;;;;;;;6.07;3.13;;;;;;;;;;5032208;28;20168;-49
2022/04/03 10:30:45;;;;;;;7.28;3.15;;;;;;;;;;5031929;28;20187;-49
2022/04/03 10:33:24;;;;;;;3.00;2.80;;;;;;;;;;5032000;28;20561;-50
2022/04/03 10:36:00;;;;;;;3.80;2.90;;;;;;;;;;5032062;28;20547;-50
2022/04/03 10:38:34;;;;;;;4.93;3.23;;;;;;;;;;5032077;28;20398;-48
2022/04/03 10:41:00;;;;;;;3.50;3.20;;;;;;;;;;5031713;28;20399;-49
2022/04/03 10:43:27;;;;;;;5.50;2.80;;;;;;;;;;5031854;28;20433;-49
2022/04/03 10:45:53;;;;;;;3.03;2.42;;;;;;;;;;5031847;28;20982;-48
2022/04/03 10:48:19;;;;;;;2.33;2.13;;;;;;;;;;5032002;28;20173;-48
2022/04/03 10:51:00;;;;;;;3.53;2.90;;;;;;;;;;5031610;28;20471;-49
2022/04/03 10:53:30;;;;;;;3.03;2.53;;;;;;;;;;5031623;28;20432;-50
2022/04/03 10:55:57;;;;;;;4.03;2.30;;;;;;;;;;5031874;28;20426;-49
2022/04/03 10:58:23;;;;;;;2.57;2.37;;;;;;;;;;5031814;28;20402;-50
2022/04/03 11:00:49;;;;;;;2.23;2.00;;;;;;;;;;5031575;28;20945;-51
2022/04/03 11:03:15;;;;;;;2.23;1.80;;;;;;;;;;5031639;28;20430;-50
2022/04/03 11:05:43;;;;;;;2.60;1.90;;;;;;;;;;5031610;28;20476;-50
2022/04/03 11:08:09;;;;;;;2.03;1.70;;;;;;;;;;5031676;28;20409;-51
2022/04/03 11:10:57;;;;;;;2.13;1.93;;;;;;;;;;5031693;28;20478;-49
2022/04/03 11:13:23;;;;;;;2.73;2.20;;;;;;;;;;5031894;28;20418;-49
2022/04/03 11:15:49;;;;;;;2.10;1.90;;;;;;;;;;5035649;28;20458;-49
2022/04/03 11:18:34;;;;;;;2.50;1.73;;;;;;;;;;5035774;28;20405;-51
2022/04/03 11:21:18;;;;;;;2.50;2.30;;;;;;;;;;5034333;28;20418;-51
2022/04/03 11:23:49;;;;;;;2.50;2.30;;;;;;;;;;5035487;28;20404;-50
2022/04/03 11:26:16;;;;;;;2.00;1.80;;;;;;;;;;5035471;28;20959;-51
2022/04/03 11:28:42;;;;;;;2.93;1.97;;;;;;;;;;5035553;28;20933;-49
2022/04/03 11:31:08;;;;;;;2.47;2.17;;;;;;;;;;5035365;28;20883;-50
2022/04/03 11:33:35;;;;;;;2.47;2.27;;;;;;;;;;5035514;28;20448;-49
2022/04/03 11:36:06;;;;;;;3.73;2.40;;;;;;;;;;5035402;28;20876;-49
2022/04/03 11:38:35;;;;;;;2.40;1.90;;;;;;;;;;5035418;28;20416;-51
2022/04/03 11:41:10;;;;;;;5.73;2.07;;;;;;;;;;5035141;28;20406;-50
2022/04/03 11:43:36;;;;;;;4.90;2.40;;;;;;;;;;5035049;28;20769;-50
2022/04/03 11:46:05;;;;;;;1.93;1.73;;;;;;;;;;5035230;28;20959;-50
2022/04/03 11:48:32;;;;;;;3.30;1.70;;;;;;;;;;5034491;28;20417;-50
2022/04/03 11:51:04;;;;;;;1.80;1.70;;;;;;;;;;5034989;28;20386;-51
2022/04/03 11:53:31;;;;;;;2.80;1.67;;;;;;;;;;5035200;28;20398;-48
2022/04/03 11:55:57;;;;;;;1.97;1.67;;;;;;;;;;5035138;28;20456;-51
2022/04/03 11:58:32;;;;;;;2.23;1.70;;;;;;;;;;5035200;28;20405;-50
2022/04/03 12:00:58;;;;;;;3.33;2.40;;;;;;;;;;5034849;28;20436;-50
2022/04/03 12:03:28;;;;;;;5.40;1.97;;;;;;;;;;5034881;28;20924;-49
2022/04/03 12:06:14;;;;;;;2.93;2.23;;;;;;;;;;5034670;28;20874;-51
2022/04/03 12:08:41;;;;;;;2.33;1.90;;;;;;;;;;5034732;28;20414;-50
2022/04/03 12:11:16;;;;;;;2.60;2.10;;;;;;;;;;5034806;28;20402;-49
2022/04/03 12:13:42;;;;;;;2.47;2.27;;;;;;;;;;5034736;28;20422;-51
2022/04/03 12:16:08;;;;;;;2.10;2.00;;;;;;;;;;5034721;28;20470;-49
2022/04/03 12:18:49;;;;;;;2.80;2.23;;;;;;;;;;5034520;28;20421;-50
2022/04/03 12:21:15;;;;;;;3.30;2.17;;;;;;;;;;5034244;28;20725;-51
2022/04/03 12:24:00;;;;;;;3.03;2.83;;;;;;;;;;5034745;28;20430;-51
2022/04/03 12:26:26;;;;;;;2.57;2.20;;;;;;;;;;5033462;28;20448;-51
2022/04/03 12:28:52;;;;;;;2.57;2.37;;;;;;;;;;5034415;28;20392;-51
2022/04/03 12:31:18;;;;;;;2.10;2.00;;;;;;;;;;5034147;28;20402;-51
2022/04/03 12:33:44;;;;;;;2.60;2.40;;;;;;;;;;5034097;28;20445;-51
2022/04/03 12:36:10;;;;;;;4.10;2.60;;;;;;;;;;5034312;28;20405;-50
2022/04/03 12:38:36;;;;;;;2.43;2.23;;;;;;;;;;5034426;28;20421;-50
2022/04/03 12:41:03;;;;;;;2.00;1.90;;;;;;;;;;5033961;28;20378;-50
2022/04/03 12:43:42;;;;;;;2.70;2.30;;;;;;;;;;5034157;28;20485;-51
2022/04/03 12:46:08;;;;;;;3.10;2.70;;;;;;;;;;5034085;28;20456;-49
2022/04/03 12:48:35;;;;;;;2.90;2.10;;;;;;;;;;5033998;28;20905;-50
2022/04/03 12:51:08;;;;;;;2.30;2.10;;;;;;;;;;5033515;28;20740;-51
2022/04/03 12:53:34;;;;;;;3.23;3.00;;;;;;;;;;5033874;28;20424;-49
2022/04/03 12:56:04;;;;;;;2.30;2.20;;;;;;;;;;5033751;28;20410;-49
2022/04/03 12:58:40;;;;;;;3.87;3.10;;;;;;;;;;5033812;28;20401;-51
2022/04/03 13:01:15;;;;;;;2.70;2.50;;;;;;;;;;5033595;28;20474;-51
2022/04/03 13:03:42;;;;;;;3.33;2.80;;;;;;;;;;5033691;28;20406;-50
2022/04/03 13:06:15;;;;;;;3.03;2.33;;;;;;;;;;5033723;28;20889;-52
2022/04/03 13:08:43;;;;;;;4.60;2.90;;;;;;;;;;5033714;28;20403;-50
2022/04/03 13:11:09;;;;;;;5.87;2.90;;;;;;;;;;5033320;28;20494;-50
2022/04/03 13:13:36;;;;;;;4.87;3.13;;;;;;;;;;5033532;28;20423;-50
2022/04/03 13:16:02;;;;;;;3.73;3.40;;;;;;;;;;5033564;28;20496;-48
2022/04/03 13:18:28;;;;;;;4.60;4.10;;;;;;;;;;5033378;28;20489;-48
2022/04/03 13:20:55;;;;;;;4.30;3.87;;;;;;;;;;5033198;28;20489;-48
2022/04/03 13:23:21;;;;;;;4.37;4.07;;;;;;;;;;5033260;28;20425;-49
2022/04/03 13:25:47;;;;;;;4.50;4.20;;;;;;;;;;5032100;28;20863;-50
2022/04/03 13:28:14;;;;;;;4.63;4.03;;;;;;;;;;5033297;28;20398;-49
2022/04/03 13:30:40;;;;;;;6.77;3.90;;;;;;;;;;5033094;28;20539;-50
2022/04/03 13:33:06;;;;;;;4.00;3.70;;;;;;;;;;5033149;28;20784;-48
2022/04/03 13:35:32;;;;;;;3.60;3.30;;;;;;;;;;5033152;28;20400;-49
2022/04/03 13:37:58;;;;;;;3.53;2.90;;;;;;;;;;5032803;28;20407;-48
2022/04/03 13:40:24;;;;;;;3.07;2.87;;;;;;;;;;5032813;28;20403;-48
2022/04/03 13:42:50;;;;;;;3.20;3.00;;;;;;;;;;5032867;28;20926;-49
2022/04/03 13:45:16;;;;;;;2.83;2.63;;;;;;;;;;5033150;28;20978;-49
2022/04/03 13:47:42;;;;;;;2.80;2.60;;;;;;;;;;5032812;28;20552;-50
2022/04/03 13:50:08;;;;;;;2.93;2.77;;;;;;;;;;5032514;28;20418;-49
2022/04/03 13:52:36;;;;;;;4.30;2.93;;;;;;;;;;5032515;28;20426;-50
2022/04/03 13:55:02;;;;;;;4.50;3.33;;;;;;;;;;5032739;28;20437;-50
2022/04/03 13:57:28;;;;;;;3.10;2.57;;;;;;;;;;5032754;28;20406;-49
2022/04/03 13:59:56;;;;;;;3.17;2.87;;;;;;;;;;5032511;28;20410;-51
2022/04/03 14:02:22;;;;;;;5.00;2.50;;;;;;;;;;5032524;28;20406;-50
2022/04/03 14:04:48;;;;;;;2.60;2.20;;;;;;;;;;5032642;28;20431;-50
2022/04/03 14:07:14;;;;;;;2.50;2.30;;;;;;;;;;5032266;28;20973;-50
2022/04/03 14:09:40;;;;;;;2.47;2.27;;;;;;;;;;5032236;28;20738;-50
2022/04/03 14:12:07;;;;;;;2.27;2.10;;;;;;;;;;5032302;28;20402;-49
2022/04/03 14:14:33;;;;;;;2.90;2.60;;;;;;;;;;5032420;28;20461;-51
2022/04/03 14:16:59;;;;;;;3.67;2.17;;;;;;;;;;5032332;28;20403;-50
2022/04/03 14:19:25;;;;;;;2.93;2.00;;;;;;;;;;5032074;28;20415;-50
2022/04/03 14:21:51;;;;;;;2.67;1.80;;;;;;;;;;5032042;28;20410;-51
2022/04/03 14:24:17;;;;;;;2.40;2.20;;;;;;;;;;5032495;28;20423;-50
2022/04/03 14:26:45;;;;;;;2.40;2.20;;;;;;;;;;5032139;28;20946;-50
2022/04/03 14:29:11;;;;;;;2.40;2.20;;;;;;;;;;5032348;28;20398;-50
2022/04/03 14:31:37;;;;;;;2.30;2.10;;;;;;;;;;5032215;28;20406;-49
2022/04/03 14:34:03;;;;;;;4.83;2.20;;;;;;;;;;5032046;28;20773;-51
2022/04/03 14:36:29;;;;;;;1.83;1.73;;;;;;;;;;5031826;28;20412;-51
2022/04/03 14:38:55;;;;;;;4.43;1.80;;;;;;;;;;5031947;28;20895;-50
2022/04/03 14:41:21;;;;;;;2.20;2.00;;;;;;;;;;5032019;28;20407;-50
2022/04/03 14:43:47;;;;;;;3.70;1.87;;;;;;;;;;5031962;28;20439;-50
2022/04/03 14:46:13;;;;;;;1.93;1.73;;;;;;;;;;5031953;28;20671;-51
2022/04/03 14:48:39;;;;;;;1.83;1.73;;;;;;;;;;5031762;28;20374;-51
2022/04/03 14:51:05;;;;;;;2.40;2.20;;;;;;;;;;5031584;28;20381;-51
2022/04/03 14:53:31;;;;;;;2.50;2.30;;;;;;;;;;5032011;28;20449;-51